N369WG ZZZZ-KOKC
Flight info
| Callsign | N369WG |
|---|---|
| Flight time | N/A |
| Altitude | VFR |
| Route | VFR SOUTH |
| Aircraft | P28B/L-DOV/C |
Departure
| Time | N/A |
|---|---|
| Airport | ZZZZ |
Arrival
| Time | 2026-04-27 23:32 |
|---|---|
| Airport | OKC Will Rogers World Airport (KOKC) |
| Time | Latitude | Longitude | Altitude | Speed | Heading |
|---|---|---|---|---|---|
| 2026-04-27 23:20 | 35.17228 | -97.89014 | 3923 ft | 109 kts | 54° |
| 2026-04-27 23:21 | 35.17614 | -97.88198 | 3917 ft | 118 kts | 60° |
| 2026-04-27 23:21 | 35.17986 | -97.87318 | 3992 ft | 115 kts | 60° |
| 2026-04-27 23:21 | 35.18327 | -97.86442 | 4103 ft | 112 kts | 64° |
| 2026-04-27 23:21 | 35.18664 | -97.85527 | 4085 ft | 122 kts | 65° |
| 2026-04-27 23:22 | 35.18958 | -97.84599 | 4333 ft | 102 kts | 67° |
| 2026-04-27 23:22 | 35.19199 | -97.83693 | 4326 ft | 115 kts | 75° |
| 2026-04-27 23:22 | 35.19485 | -97.82755 | 4252 ft | 129 kts | 62° |
| 2026-04-27 23:22 | 35.19961 | -97.81882 | 4446 ft | 113 kts | 40° |
| 2026-04-27 23:23 | 35.20629 | -97.81164 | 4193 ft | 134 kts | 34° |
| 2026-04-27 23:23 | 35.21354 | -97.80434 | 4077 ft | 136 kts | 35° |
| 2026-04-27 23:23 | 35.22106 | -97.79779 | 4048 ft | 131 kts | 27° |
| 2026-04-27 23:23 | 35.22875 | -97.79191 | 4044 ft | 128 kts | 27° |
| 2026-04-27 23:24 | 35.23607 | -97.78637 | 4100 ft | 121 kts | 26° |
| 2026-04-27 23:24 | 35.24318 | -97.78134 | 4190 ft | 116 kts | 23° |
| 2026-04-27 23:24 | 35.25023 | -97.77656 | 4241 ft | 116 kts | 23° |
| 2026-04-27 23:24 | 35.25725 | -97.77163 | 4273 ft | 119 kts | 19° |
| 2026-04-27 23:25 | 35.26447 | -97.76685 | 4288 ft | 121 kts | 18° |
| 2026-04-27 23:25 | 35.27230 | -97.76337 | 4333 ft | 119 kts | 11° |
| 2026-04-27 23:25 | 35.28005 | -97.76075 | 4353 ft | 119 kts | 5° |
| 2026-04-27 23:25 | 35.28809 | -97.75774 | 4376 ft | 117 kts | 9° |
| 2026-04-27 23:26 | 35.29590 | -97.75357 | 4369 ft | 118 kts | 24° |
| 2026-04-27 23:26 | 35.30313 | -97.74813 | 4215 ft | 135 kts | 24° |
| 2026-04-27 23:26 | 35.31072 | -97.74190 | 4256 ft | 128 kts | 41° |
| 2026-04-27 23:26 | 35.31351 | -97.73146 | 4103 ft | 142 kts | 89° |
| 2026-04-27 23:27 | 35.31256 | -97.71869 | 3764 ft | 154 kts | 85° |
| 2026-04-27 23:27 | 35.31236 | -97.70494 | 3307 ft | 162 kts | 81° |
| 2026-04-27 23:27 | 35.31238 | -97.69144 | 3077 ft | 153 kts | 80° |
| 2026-04-27 23:27 | 35.31261 | -97.67933 | 3193 ft | 133 kts | 75° |
| 2026-04-27 23:28 | 35.31239 | -97.66795 | 3147 ft | 139 kts | 84° |
| 2026-04-27 23:28 | 35.31188 | -97.65606 | 2926 ft | 145 kts | 84° |
| 2026-04-27 23:28 | 35.31111 | -97.64449 | 2874 ft | 122 kts | 83° |
| 2026-04-27 23:28 | 35.31029 | -97.63440 | 2666 ft | 117 kts | 82° |
| 2026-04-27 23:29 | 35.30968 | -97.62457 | 2475 ft | 113 kts | 82° |
| 2026-04-27 23:29 | 35.31136 | -97.61591 | 2421 ft | 96 kts | 41° |
| 2026-04-27 23:29 | 35.31707 | -97.61214 | 2253 ft | 95 kts | 9° |
| 2026-04-27 23:29 | 35.32377 | -97.61066 | 2061 ft | 96 kts | 3° |
| 2026-04-27 23:30 | 35.33015 | -97.60917 | 1920 ft | 92 kts | 3° |
| 2026-04-27 23:30 | 35.33650 | -97.60832 | 1825 ft | 93 kts | 6° |
| 2026-04-27 23:30 | 35.34290 | -97.60770 | 1733 ft | 91 kts | 358° |
| 2026-04-27 23:30 | 35.34919 | -97.60662 | 1728 ft | 90 kts | 2° |
| 2026-04-27 23:31 | 35.35569 | -97.60604 | 1685 ft | 95 kts | 0° |
| 2026-04-27 23:31 | 35.36199 | -97.60603 | 1665 ft | 84 kts | 354° |
| 2026-04-27 23:31 | 35.36750 | -97.60590 | 1589 ft | 77 kts | 356° |
| 2026-04-27 23:31 | 35.37260 | -97.60579 | 1524 ft | 72 kts | 356° |
| 2026-04-27 23:32 | 35.37756 | -97.60579 | 1403 ft | 67 kts | 357° |
| 2026-04-27 23:32 | 35.38190 | -97.60578 | 1309 ft | 56 kts | 357° |
| 2026-04-27 23:32 | 35.38539 | -97.60591 | 1296 ft | 48 kts | 354° |
| 2026-04-27 23:32 | 35.38976 | -97.60591 | 1346 ft | 77 kts | 357° |
| 2026-04-27 23:33 | 35.39589 | -97.60603 | 1454 ft | 97 kts | 357° |
| 2026-04-27 23:33 | 35.40278 | -97.60509 | 1712 ft | 97 kts | 17° |
| 2026-04-27 23:33 | 35.40638 | -97.59891 | 2022 ft | 99 kts | 71° |
| 2026-04-27 23:33 | 35.40584 | -97.58932 | 2084 ft | 126 kts | 80° |
| 2026-04-27 23:34 | 35.40573 | -97.57778 | 2098 ft | 141 kts | 80° |
| 2026-04-27 23:34 | 35.40568 | -97.56573 | 2111 ft | 138 kts | 78° |
| 2026-04-27 23:34 | 35.40594 | -97.55402 | 2171 ft | 137 kts | 82° |
| 2026-04-27 23:34 | 35.40307 | -97.54327 | 2429 ft | 131 kts | 95° |
| 2026-04-27 23:35 | 35.39861 | -97.53355 | 2689 ft | 127 kts | 124° |
| 2026-04-27 23:35 | 35.39024 | -97.52841 | 2511 ft | 152 kts | 166° |
| 2026-04-27 23:35 | 35.37912 | -97.52733 | 2346 ft | 164 kts | 174° |
| 2026-04-27 23:35 | 35.36776 | -97.52705 | 2274 ft | 162 kts | 187° |
| 2026-04-27 23:36 | 35.35843 | -97.53308 | 2126 ft | 159 kts | 240° |
| 2026-04-27 23:36 | 35.35614 | -97.54560 | 2155 ft | 150 kts | 264° |
| 2026-04-27 23:36 | 35.35502 | -97.55815 | 2101 ft | 145 kts | 264° |
| 2026-04-27 23:36 | 35.35359 | -97.57014 | 1894 ft | 130 kts | 261° |
| 2026-04-27 23:37 | 35.35298 | -97.58027 | 1804 ft | 103 kts | 278° |
| 2026-04-27 23:37 | 35.35817 | -97.58519 | 1633 ft | 109 kts | 322° |
| 2026-04-27 23:37 | 35.36475 | -97.58884 | 1646 ft | 92 kts | 347° |
| 2026-04-27 23:37 | 35.37042 | -97.58914 | 1508 ft | 71 kts | 357° |
| 2026-04-27 23:38 | 35.37483 | -97.58907 | 1381 ft | 56 kts | 358° |
| 2026-04-27 23:38 | 35.37854 | -97.58895 | 1322 ft | 55 kts | 356° |
| 2026-04-27 23:38 | 35.38202 | -97.58898 | 1285 ft | 43 kts | 357° |
| 2026-04-27 23:38 | 35.38553 | -97.58913 | 1308 ft | 67 kts | 357° |
| 2026-04-27 23:39 | 35.39090 | -97.58916 | 1423 ft | 87 kts | 358° |
| 2026-04-27 23:39 | 35.39752 | -97.58909 | 1528 ft | 102 kts | 358° |
| 2026-04-27 23:39 | 35.40472 | -97.58911 | 1812 ft | 100 kts | 356° |
| 2026-04-27 23:39 | 35.41092 | -97.58549 | 2106 ft | 103 kts | 41° |
| 2026-04-27 23:40 | 35.41326 | -97.57637 | 2201 ft | 121 kts | 78° |
| 2026-04-27 23:40 | 35.41312 | -97.56581 | 2322 ft | 131 kts | 82° |
| 2026-04-27 23:40 | 35.40833 | -97.55662 | 2551 ft | 137 kts | 146° |
| 2026-04-27 23:40 | 35.39945 | -97.55346 | 2738 ft | 139 kts | 167° |
| 2026-04-27 23:41 | 35.38966 | -97.55240 | 2857 ft | 147 kts | 170° |
| 2026-04-27 23:41 | 35.37955 | -97.55121 | 2905 ft | 153 kts | 173° |
| 2026-04-27 23:41 | 35.36875 | -97.55103 | 2983 ft | 152 kts | 182° |
| 2026-04-27 23:41 | 35.35821 | -97.55211 | 2838 ft | 146 kts | 197° |
| 2026-04-27 23:42 | 35.35000 | -97.55851 | 2545 ft | 136 kts | 230° |
| 2026-04-27 23:42 | 35.34713 | -97.56862 | 2347 ft | 122 kts | 257° |
| 2026-04-27 23:42 | 35.34579 | -97.57888 | 2181 ft | 117 kts | 264° |
| 2026-04-27 23:42 | 35.34610 | -97.58817 | 2113 ft | 104 kts | 287° |
| 2026-04-27 23:43 | 35.35074 | -97.59223 | 2004 ft | 89 kts | 5° |
| 2026-04-27 23:43 | 35.35719 | -97.59027 | 1701 ft | 103 kts | 4° |
| 2026-04-27 23:43 | 35.36398 | -97.58911 | 1601 ft | 92 kts | 356° |
| 2026-04-27 23:43 | 35.37009 | -97.58915 | 1544 ft | 84 kts | 356° |
| 2026-04-27 23:44 | 35.37603 | -97.58906 | 1407 ft | 81 kts | 358° |
| 2026-04-27 23:44 | 35.38086 | -97.58895 | 1291 ft | 59 kts | 358° |
| 2026-04-27 23:44 | 35.38420 | -97.58905 | 1287 ft | 37 kts | 359° |
| 2026-04-27 23:44 | 35.38534 | -97.58860 | 1287 ft | 14 kts | 53° |
| 2026-04-27 23:45 | 35.38549 | -97.58780 | 1287 ft | 0 kts | 75° |
| 2026-04-27 23:46 | 35.38549 | -97.58778 | 1287 ft | 3 kts | 77° |
| 2026-04-27 23:46 | 35.38612 | -97.58726 | 1289 ft | 14 kts | 4° |
| 2026-04-27 23:46 | 35.38725 | -97.58726 | 1293 ft | 17 kts | 1° |
| 2026-04-27 23:46 | 35.38829 | -97.58727 | 1294 ft | 13 kts | 357° |
| 2026-04-27 23:47 | 35.38930 | -97.58721 | 1293 ft | 16 kts | 353° |
| 2026-04-27 23:47 | 35.39047 | -97.58721 | 1293 ft | 18 kts | 355° |
| 2026-04-27 23:47 | 35.39174 | -97.58727 | 1294 ft | 19 kts | 359° |
| 2026-04-27 23:47 | 35.39325 | -97.58726 | 1289 ft | 24 kts | 360° |
| 2026-04-27 23:48 | 35.39494 | -97.58727 | 1289 ft | 25 kts | 0° |
| 2026-04-27 23:48 | 35.39672 | -97.58728 | 1287 ft | 24 kts | 359° |
| 2026-04-27 23:48 | 35.39717 | -97.58660 | 1287 ft | 13 kts | 90° |
| 2026-04-27 23:48 | 35.39650 | -97.58607 | 1286 ft | 16 kts | 173° |
| 2026-04-27 23:49 | 35.39594 | -97.58544 | 1285 ft | 8 kts | 88° |
| 2026-04-27 23:49 | 35.39594 | -97.58512 | 1285 ft | 0 kts | 90° |
| 2026-04-27 23:49 | 35.39594 | -97.58509 | 1285 ft | 0 kts | 89° |
| 2026-04-27 23:49 | 35.39594 | -97.58508 | 1285 ft | 0 kts | 89° |
| 2026-04-27 23:50 | 35.39594 | -97.58516 | 1285 ft | 0 kts | 89° |